createdAt,value
2018-12-02T00:00:12.817Z,9.94
2018-12-02T00:01:12.791Z,9.97
2018-12-02T00:02:12.768Z,10.00
2018-12-02T00:03:12.745Z,9.97
2018-12-02T00:04:12.732Z,9.95
2018-12-02T00:05:12.701Z,9.92
2018-12-02T00:06:12.678Z,9.90
2018-12-02T00:07:12.656Z,10.03
2018-12-02T00:08:12.633Z,9.87
2018-12-02T00:09:12.610Z,9.91
2018-12-02T00:10:12.586Z,9.91
2018-12-02T00:11:12.565Z,9.90
2018-12-02T00:12:12.549Z,9.90
2018-12-02T00:13:12.519Z,9.91
2018-12-02T00:14:12.495Z,9.97
2018-12-02T00:15:12.472Z,9.97
2018-12-02T00:16:12.450Z,9.97
2018-12-02T00:17:12.430Z,10.02
2018-12-02T00:18:12.409Z,10.02
2018-12-02T00:19:12.382Z,10.02
2018-12-02T00:20:12.359Z,10.02
2018-12-02T00:21:12.344Z,10.07
2018-12-02T00:22:12.323Z,10.00
2018-12-02T00:23:12.291Z,10.03
2018-12-02T00:24:12.269Z,9.99
2018-12-02T00:25:12.248Z,9.97
2018-12-02T00:26:12.224Z,10.05
2018-12-02T00:27:12.201Z,10.05
2018-12-02T00:28:12.177Z,10.00
2018-12-02T00:29:12.157Z,10.09
2018-12-02T00:30:12.131Z,9.92
2018-12-02T00:31:12.108Z,10.10
2018-12-02T00:32:12.092Z,10.05
2018-12-02T00:33:12.063Z,10.00
2018-12-02T00:34:12.039Z,10.00
2018-12-02T00:35:12.018Z,10.06
2018-12-02T00:36:11.997Z,10.09
2018-12-02T00:37:11.973Z,10.10
2018-12-02T00:38:11.950Z,10.10
2018-12-02T00:39:11.927Z,10.18
2018-12-02T00:40:11.905Z,10.12
2018-12-02T00:41:11.880Z,10.15
2018-12-02T00:42:11.857Z,10.15
2018-12-02T00:43:11.841Z,10.15
2018-12-02T00:44:11.815Z,10.13
2018-12-02T00:45:11.787Z,10.21
2018-12-02T00:46:11.766Z,10.15
2018-12-02T00:47:11.743Z,10.12
2018-12-02T00:48:11.721Z,10.20
2018-12-02T00:49:11.697Z,10.13
2018-12-02T00:50:11.676Z,10.18
2018-12-02T00:51:11.658Z,10.15
2018-12-02T00:52:11.631Z,10.24
2018-12-02T00:53:11.609Z,10.17
2018-12-02T00:54:11.584Z,10.20
2018-12-02T00:55:11.561Z,10.17
2018-12-02T00:56:11.539Z,10.23
2018-12-02T00:57:11.516Z,10.18
2018-12-02T00:58:11.492Z,10.21
2018-12-02T00:59:11.470Z,10.21
2018-12-02T01:00:11.451Z,10.27
2018-12-02T01:01:11.427Z,10.24
2018-12-02T01:02:11.403Z,10.27
2018-12-02T01:03:11.380Z,10.24
2018-12-02T01:04:11.357Z,10.27
2018-12-02T01:05:11.335Z,10.30
2018-12-02T01:06:11.313Z,10.23
2018-12-02T01:07:11.296Z,10.30
2018-12-02T01:08:11.283Z,10.38
2018-12-02T01:09:11.246Z,10.24
2018-12-02T01:10:11.222Z,10.27
2018-12-02T01:11:11.199Z,10.33
2018-12-02T01:12:11.176Z,10.27
2018-12-02T01:13:11.152Z,10.30
2018-12-02T01:14:11.134Z,10.20
2018-12-02T01:15:11.108Z,10.21
2018-12-02T01:16:11.085Z,10.33
2018-12-02T01:17:11.062Z,10.38
2018-12-02T01:18:11.042Z,10.34
2018-12-02T01:19:11.018Z,10.31
2018-12-02T01:20:10.994Z,10.28
2018-12-02T01:21:10.973Z,10.28
2018-12-02T01:22:10.949Z,10.23
2018-12-02T01:23:10.926Z,10.24
2018-12-02T01:24:10.903Z,10.31
2018-12-02T01:25:10.881Z,10.36
2018-12-02T01:26:10.858Z,10.36
2018-12-02T01:27:10.836Z,10.39
2018-12-02T01:28:10.815Z,10.38
2018-12-02T01:29:10.790Z,10.33
2018-12-02T01:30:10.767Z,10.34
2018-12-02T01:31:10.749Z,10.28
2018-12-02T01:32:10.725Z,10.42
2018-12-02T01:33:10.699Z,10.41
2018-12-02T01:34:10.679Z,10.36
2018-12-02T01:35:10.656Z,10.36
2018-12-02T01:36:10.634Z,10.33
2018-12-02T01:37:10.609Z,10.36
2018-12-02T01:38:10.587Z,10.38
2018-12-02T01:39:10.564Z,10.46
2018-12-02T01:40:10.542Z,10.39
2018-12-02T01:41:10.519Z,10.48
2018-12-02T01:42:10.499Z,10.36
2018-12-02T01:43:10.475Z,10.39
2018-12-02T01:44:10.453Z,10.36
2018-12-02T01:45:10.429Z,10.45
2018-12-02T01:46:10.406Z,10.38
2018-12-02T01:47:10.394Z,10.46
2018-12-02T01:48:10.362Z,10.38
2018-12-02T01:49:10.339Z,10.43
2018-12-02T01:50:10.317Z,10.34
2018-12-02T01:51:10.294Z,10.36
2018-12-02T01:52:10.275Z,10.31
2018-12-02T01:53:10.249Z,10.42
2018-12-02T01:54:10.226Z,10.34
2018-12-02T01:55:10.205Z,10.33
2018-12-02T01:56:10.182Z,10.43
2018-12-02T01:57:10.159Z,10.38
2018-12-02T01:58:10.135Z,10.34
2018-12-02T01:59:10.118Z,10.42
2018-12-02T02:00:10.091Z,10.48
2018-12-02T02:01:10.074Z,10.41
2018-12-02T02:02:10.047Z,10.45
2018-12-02T02:03:10.055Z,10.41
2018-12-02T02:04:10.003Z,10.36
2018-12-02T02:05:09.981Z,10.33
2018-12-02T02:06:09.958Z,10.36
2018-12-02T02:07:09.934Z,10.38
2018-12-02T02:08:09.913Z,10.42
2018-12-02T02:09:09.890Z,10.38
2018-12-02T02:10:09.867Z,10.39
2018-12-02T02:11:09.843Z,10.36
2018-12-02T02:12:09.821Z,10.39
2018-12-02T02:13:09.798Z,10.39
2018-12-02T02:14:09.777Z,10.41
2018-12-02T02:15:09.772Z,10.39
2018-12-02T02:16:09.731Z,10.39
2018-12-02T02:17:09.709Z,10.43
2018-12-02T02:18:09.689Z,10.38
2018-12-02T02:19:09.663Z,10.39
2018-12-02T02:20:09.641Z,10.39
2018-12-02T02:21:09.618Z,10.45
2018-12-02T02:22:09.595Z,10.36
2018-12-02T02:23:09.573Z,10.36
2018-12-02T02:24:09.552Z,10.39
2018-12-02T02:25:09.530Z,10.39
2018-12-02T02:26:09.506Z,10.45
2018-12-02T02:27:09.484Z,10.43
2018-12-02T02:28:09.464Z,10.45
2018-12-02T02:29:09.439Z,10.42
2018-12-02T02:30:09.417Z,10.41
2018-12-02T02:31:09.395Z,10.45
2018-12-02T02:32:09.372Z,10.43
2018-12-02T02:33:09.350Z,10.45
2018-12-02T02:34:09.326Z,10.48
2018-12-02T02:35:09.303Z,10.45
2018-12-02T02:36:09.281Z,10.45
2018-12-02T02:37:09.258Z,10.42
2018-12-02T02:38:09.236Z,10.45
2018-12-02T02:39:09.214Z,10.46
2018-12-02T02:40:09.191Z,10.49
2018-12-02T02:41:09.170Z,10.53
2018-12-02T02:42:09.147Z,10.46
2018-12-02T02:43:09.124Z,10.46
2018-12-02T02:44:09.103Z,10.51
2018-12-02T02:45:09.086Z,10.51
2018-12-02T02:46:09.057Z,10.49
2018-12-02T02:47:09.069Z,10.51
2018-12-02T02:48:09.018Z,10.57
2018-12-02T02:49:08.988Z,10.53
2018-12-02T02:50:08.968Z,10.53
2018-12-02T02:51:08.944Z,10.46
2018-12-02T02:52:08.926Z,10.53
2018-12-02T02:53:08.909Z,10.57
2018-12-02T02:54:08.881Z,10.51
2018-12-02T02:55:08.857Z,10.53
2018-12-02T02:56:08.833Z,10.58
2018-12-02T02:57:08.812Z,10.58
2018-12-02T02:58:08.788Z,10.57
2018-12-02T02:59:08.771Z,10.43
2018-12-02T03:00:08.750Z,10.53
2018-12-02T03:01:08.730Z,10.55
2018-12-02T03:02:08.709Z,10.55
2018-12-02T03:03:08.679Z,10.42
2018-12-02T03:04:08.654Z,10.46
2018-12-02T03:05:08.631Z,10.49
2018-12-02T03:06:08.610Z,10.62
2018-12-02T03:07:08.587Z,10.53
2018-12-02T03:08:08.566Z,10.53
2018-12-02T03:09:08.541Z,10.58
2018-12-02T03:10:08.521Z,10.51
2018-12-02T03:11:08.497Z,10.57
2018-12-02T03:12:08.482Z,10.62
2018-12-02T03:13:08.452Z,10.62
2018-12-02T03:14:08.430Z,10.53
2018-12-02T03:15:08.408Z,10.55
2018-12-02T03:16:08.387Z,10.57
2018-12-02T03:17:08.369Z,10.64
2018-12-02T03:18:08.342Z,10.59
2018-12-02T03:19:08.324Z,10.55
2018-12-02T03:20:08.296Z,10.61
2018-12-02T03:21:08.273Z,10.64
2018-12-02T03:22:08.251Z,10.65
2018-12-02T03:23:08.231Z,10.59
2018-12-02T03:24:08.214Z,10.68
2018-12-02T03:25:08.265Z,10.61
2018-12-02T03:26:08.166Z,10.59
2018-12-02T03:27:08.141Z,10.58
2018-12-02T03:28:08.119Z,10.59
2018-12-02T03:29:08.095Z,10.57
2018-12-02T03:30:08.075Z,10.62
2018-12-02T03:31:08.055Z,10.59
2018-12-02T03:32:08.031Z,10.64
2018-12-02T03:33:08.009Z,10.59
2018-12-02T03:34:07.984Z,10.58
2018-12-02T03:35:07.962Z,10.61
2018-12-02T03:36:07.940Z,10.58
2018-12-02T03:37:07.920Z,10.61
2018-12-02T03:38:07.895Z,10.55
2018-12-02T03:39:07.872Z,10.58
2018-12-02T03:40:07.849Z,10.59
2018-12-02T03:41:07.829Z,10.61
2018-12-02T03:42:07.852Z,10.61
2018-12-02T03:43:07.787Z,10.57
2018-12-02T03:44:07.762Z,10.57
2018-12-02T03:45:07.740Z,10.53
2018-12-02T03:46:07.716Z,10.53
2018-12-02T03:47:07.693Z,10.55
2018-12-02T03:48:07.672Z,10.49
2018-12-02T03:49:07.650Z,10.42
2018-12-02T03:50:07.627Z,10.43
2018-12-02T03:51:07.613Z,10.45
2018-12-02T03:52:07.587Z,10.39
2018-12-02T03:53:07.564Z,10.39
2018-12-02T03:54:07.539Z,10.33
2018-12-02T03:55:07.524Z,10.30
2018-12-02T03:56:07.502Z,10.33
2018-12-02T03:57:07.471Z,10.30
2018-12-02T03:58:07.452Z,10.25
2018-12-02T03:59:07.427Z,10.28
2018-12-02T04:00:07.405Z,10.21
2018-12-02T04:01:07.381Z,10.15
2018-12-02T04:02:07.359Z,10.15
2018-12-02T04:03:07.340Z,10.17
2018-12-02T04:04:07.314Z,10.13
2018-12-02T04:05:07.292Z,10.05
2018-12-02T04:06:07.269Z,10.02
2018-12-02T04:07:07.247Z,10.10
2018-12-02T04:08:07.225Z,9.99
2018-12-02T04:09:07.202Z,10.00
2018-12-02T04:10:07.179Z,10.02
2018-12-02T04:11:07.160Z,10.02
2018-12-02T04:12:07.135Z,9.94
2018-12-02T04:13:07.119Z,9.88
2018-12-02T04:14:07.093Z,9.90
2018-12-02T04:15:07.069Z,9.90
2018-12-02T04:16:07.072Z,9.95
2018-12-02T04:17:07.024Z,9.92
2018-12-02T04:18:07.001Z,9.91
2018-12-02T04:19:06.978Z,9.92
2018-12-02T04:20:06.955Z,9.92
2018-12-02T04:21:06.930Z,9.90
2018-12-02T04:22:06.910Z,9.90
2018-12-02T04:23:06.890Z,9.92
2018-12-02T04:24:06.865Z,9.92
2018-12-02T04:25:06.844Z,9.91
2018-12-02T04:26:06.819Z,9.92
2018-12-02T04:27:06.797Z,9.90
2018-12-02T04:28:06.774Z,9.92
2018-12-02T04:29:06.752Z,9.92
2018-12-02T04:30:06.729Z,9.91
2018-12-02T04:31:06.709Z,9.90
2018-12-02T04:32:06.684Z,9.88
2018-12-02T04:33:06.660Z,9.88
2018-12-02T04:34:06.638Z,9.84
2018-12-02T04:35:06.615Z,9.84
2018-12-02T04:36:06.599Z,9.87
2018-12-02T04:37:06.572Z,9.88
2018-12-02T04:38:06.552Z,9.88
2018-12-02T04:39:06.525Z,9.77
2018-12-02T04:40:06.505Z,9.92
2018-12-02T04:41:06.480Z,9.90
2018-12-02T04:42:06.456Z,9.80
2018-12-02T04:43:06.436Z,9.84
2018-12-02T04:44:06.420Z,9.81
2018-12-02T04:45:06.404Z,9.87
2018-12-02T04:46:06.367Z,9.85
2018-12-02T04:47:06.343Z,9.87
2018-12-02T04:48:06.321Z,9.73
2018-12-02T04:49:06.297Z,9.88
2018-12-02T04:50:06.275Z,9.81
2018-12-02T04:51:06.254Z,9.87
2018-12-02T04:52:06.231Z,9.76
2018-12-02T04:53:06.209Z,9.81
2018-12-02T04:54:06.185Z,9.77
2018-12-02T04:55:06.164Z,9.80
2018-12-02T04:56:06.147Z,9.84
2018-12-02T04:57:06.117Z,9.76
2018-12-02T04:58:06.100Z,9.74
2018-12-02T04:59:06.079Z,9.81
2018-12-02T05:00:06.050Z,9.76
2018-12-02T05:01:06.026Z,9.85
2018-12-02T05:02:06.006Z,9.77
2018-12-02T05:03:05.981Z,9.84
2018-12-02T05:04:05.960Z,9.80
2018-12-02T05:05:05.938Z,9.82
2018-12-02T05:06:05.914Z,9.77
2018-12-02T05:07:05.897Z,9.81
2018-12-02T05:08:05.869Z,9.72
2018-12-02T05:09:05.852Z,9.80
2018-12-02T05:10:05.826Z,9.82
2018-12-02T05:11:05.801Z,9.80
2018-12-02T05:12:05.779Z,9.85
2018-12-02T05:13:05.754Z,9.76
2018-12-02T05:14:05.732Z,9.77
2018-12-02T05:15:05.709Z,9.74
2018-12-02T05:16:05.687Z,9.84
2018-12-02T05:17:05.663Z,9.77
2018-12-02T05:18:05.641Z,9.76
2018-12-02T05:19:05.618Z,9.76
2018-12-02T05:20:05.596Z,9.76
2018-12-02T05:21:05.574Z,9.72
2018-12-02T05:22:05.552Z,9.72
2018-12-02T05:23:05.527Z,9.80
2018-12-02T05:24:05.506Z,9.77
2018-12-02T05:25:05.483Z,9.74
2018-12-02T05:26:05.460Z,9.85
2018-12-02T05:27:05.438Z,9.80
2018-12-02T05:28:05.415Z,9.77
2018-12-02T05:29:05.392Z,9.74
2018-12-02T05:30:05.369Z,9.77
2018-12-02T05:31:05.351Z,9.77
2018-12-02T05:32:05.324Z,9.74
2018-12-02T05:33:05.302Z,9.77
2018-12-02T05:34:05.277Z,9.72
2018-12-02T05:35:05.257Z,9.81
2018-12-02T05:36:05.234Z,9.74
2018-12-02T05:37:05.210Z,9.76
2018-12-02T05:38:05.188Z,9.73
2018-12-02T05:39:05.169Z,9.84
2018-12-02T05:40:05.143Z,9.76
2018-12-02T05:41:05.149Z,9.82
2018-12-02T05:42:05.097Z,9.80
2018-12-02T05:43:05.075Z,9.76
2018-12-02T05:44:05.052Z,9.77
2018-12-02T05:45:05.040Z,9.76
2018-12-02T05:46:05.009Z,9.85
2018-12-02T05:47:04.984Z,9.77
2018-12-02T05:48:04.961Z,9.87
2018-12-02T05:49:04.938Z,9.82
2018-12-02T05:50:04.916Z,9.82
2018-12-02T05:51:04.895Z,9.76
2018-12-02T05:52:04.872Z,9.80
2018-12-02T05:53:04.849Z,9.81
2018-12-02T05:54:04.827Z,9.81
2018-12-02T05:55:04.804Z,9.80
2018-12-02T05:56:04.782Z,9.82
2018-12-02T05:57:04.758Z,9.76
2018-12-02T05:58:04.736Z,9.84
2018-12-02T05:59:04.713Z,9.82
2018-12-02T06:00:04.691Z,9.81
2018-12-02T06:01:04.668Z,9.77
2018-12-02T06:02:04.646Z,9.82
2018-12-02T06:03:04.623Z,9.76
2018-12-02T06:04:04.602Z,9.77
2018-12-02T06:05:04.577Z,9.77
2018-12-02T06:06:04.555Z,9.77
2018-12-02T06:07:04.534Z,9.76
2018-12-02T06:08:04.509Z,9.76
2018-12-02T06:09:04.486Z,9.80
2018-12-02T06:10:04.463Z,9.80
2018-12-02T06:11:04.441Z,9.81
2018-12-02T06:12:04.420Z,9.74
2018-12-02T06:13:04.396Z,9.84
2018-12-02T06:14:04.374Z,9.80
2018-12-02T06:15:04.351Z,9.85
2018-12-02T06:16:04.330Z,9.76
2018-12-02T06:17:04.305Z,9.80
2018-12-02T06:18:04.283Z,9.76
2018-12-02T06:19:04.260Z,9.77
2018-12-02T06:20:04.931Z,9.81
2018-12-02T06:21:04.216Z,9.82
2018-12-02T06:22:04.191Z,9.82
2018-12-02T06:23:04.203Z,9.81
2018-12-02T06:24:04.147Z,9.87
2018-12-02T06:25:04.123Z,9.81
2018-12-02T06:26:04.102Z,9.82
2018-12-02T06:27:04.081Z,9.80
2018-12-02T06:28:04.055Z,9.90
2018-12-02T06:29:04.033Z,9.92
2018-12-02T06:30:04.010Z,9.88
2018-12-02T06:31:03.988Z,9.91
2018-12-02T06:32:03.971Z,9.84
2018-12-02T06:33:03.942Z,9.87
2018-12-02T06:34:03.920Z,9.77
2018-12-02T06:35:03.897Z,9.87
2018-12-02T06:36:03.880Z,9.87
2018-12-02T06:37:03.851Z,9.90
2018-12-02T06:38:03.831Z,9.87
2018-12-02T06:39:03.808Z,9.80
2018-12-02T06:40:03.784Z,9.85
2018-12-02T06:41:03.760Z,9.76
2018-12-02T06:42:03.738Z,9.91
2018-12-02T06:43:03.716Z,9.84
2018-12-02T06:44:03.694Z,9.87
2018-12-02T06:45:03.673Z,9.87
2018-12-02T06:46:03.649Z,9.90
2018-12-02T06:47:03.624Z,9.88
2018-12-02T06:48:03.603Z,9.90
2018-12-02T06:49:03.580Z,9.91
2018-12-02T06:50:03.558Z,9.91
2018-12-02T06:51:03.535Z,9.90
2018-12-02T06:52:03.513Z,9.97
2018-12-02T06:53:03.491Z,9.91
2018-12-02T06:54:03.467Z,9.88
2018-12-02T06:55:03.444Z,9.88
2018-12-02T06:56:03.422Z,9.91
2018-12-02T06:57:03.399Z,9.97
2018-12-02T06:58:03.376Z,9.85
2018-12-02T06:59:03.355Z,9.85
2018-12-02T07:00:03.333Z,9.94
2018-12-02T07:01:03.308Z,9.92
2018-12-02T07:02:03.287Z,9.92
2018-12-02T07:03:03.267Z,9.85
2018-12-02T07:04:03.241Z,9.91
2018-12-02T07:05:03.218Z,9.85
2018-12-02T07:06:03.196Z,9.95
2018-12-02T07:07:03.176Z,9.94
2018-12-02T07:08:03.172Z,9.91
2018-12-02T07:09:03.129Z,9.95
2018-12-02T07:10:03.105Z,9.91
2018-12-02T07:11:03.083Z,9.92
2018-12-02T07:12:03.060Z,9.90
2018-12-02T07:13:03.036Z,9.92
2018-12-02T07:14:03.014Z,9.95
2018-12-02T07:15:02.993Z,9.94
2018-12-02T07:16:02.970Z,9.87
2018-12-02T07:17:02.947Z,9.87
2018-12-02T07:18:02.924Z,9.91
2018-12-02T07:19:02.902Z,9.91
2018-12-02T07:20:02.885Z,9.87
2018-12-02T07:21:02.856Z,9.88
2018-12-02T07:22:02.839Z,9.97
2018-12-02T07:23:02.811Z,9.91
2018-12-02T07:24:02.789Z,9.90
2018-12-02T07:25:02.767Z,9.95
2018-12-02T07:26:02.745Z,10.03
2018-12-02T07:27:02.723Z,10.03
2018-12-02T07:28:02.698Z,10.03
2018-12-02T07:29:02.682Z,9.99
2018-12-02T07:30:02.654Z,10.07
2018-12-02T07:31:02.630Z,10.00
2018-12-02T07:32:02.610Z,9.95
2018-12-02T07:33:02.585Z,10.00
2018-12-02T07:34:02.567Z,10.06
2018-12-02T07:35:02.540Z,10.02
2018-12-02T07:36:02.528Z,9.99
2018-12-02T07:37:02.495Z,10.06
2018-12-02T07:38:02.472Z,9.95
2018-12-02T07:39:02.449Z,9.97
2018-12-02T07:40:02.429Z,10.03
2018-12-02T07:41:02.412Z,10.00
2018-12-02T07:42:02.458Z,9.99
2018-12-02T07:43:02.361Z,10.07
2018-12-02T07:44:02.338Z,10.07
2018-12-02T07:45:02.316Z,10.02
2018-12-02T07:46:02.293Z,10.07
2018-12-02T07:47:02.271Z,10.13
2018-12-02T07:48:02.250Z,9.99
2018-12-02T07:49:02.231Z,10.00
2018-12-02T07:50:02.207Z,10.03
2018-12-02T07:51:02.184Z,10.10
2018-12-02T07:52:02.158Z,10.13
2018-12-02T07:53:02.135Z,10.10
2018-12-02T07:54:02.113Z,10.06
2018-12-02T07:55:02.094Z,10.15
2018-12-02T07:56:02.070Z,10.12
2018-12-02T07:57:02.052Z,10.09
2018-12-02T07:58:02.023Z,10.10
2018-12-02T07:59:02.000Z,10.12
2018-12-02T08:00:01.979Z,10.18
2018-12-02T08:01:01.956Z,10.15
2018-12-02T08:02:01.933Z,10.12
2018-12-02T08:03:01.914Z,10.06
2018-12-02T08:04:01.889Z,10.20
2018-12-02T08:05:01.865Z,10.18
2018-12-02T08:06:01.843Z,10.17
2018-12-02T08:07:01.826Z,10.15
2018-12-02T08:08:01.799Z,10.12
2018-12-02T08:09:01.775Z,10.21
2018-12-02T08:10:01.754Z,10.15
2018-12-02T08:11:01.731Z,10.18
2018-12-02T08:12:01.708Z,10.17
2018-12-02T08:13:01.685Z,10.21
2018-12-02T08:14:01.666Z,10.21
2018-12-02T08:15:01.641Z,10.18
2018-12-02T08:16:01.618Z,10.21
2018-12-02T08:17:01.595Z,10.20
2018-12-02T08:18:01.574Z,10.20
2018-12-02T08:19:01.551Z,10.17
2018-12-02T08:20:01.532Z,10.20
2018-12-02T08:21:01.505Z,10.20
2018-12-02T08:22:01.487Z,10.20
2018-12-02T08:23:01.466Z,10.23
2018-12-02T08:24:01.438Z,10.23
2018-12-02T08:25:01.415Z,10.24
2018-12-02T08:26:01.393Z,10.20
2018-12-02T08:27:01.372Z,10.24
2018-12-02T08:28:01.348Z,10.23
2018-12-02T08:29:01.326Z,10.23
2018-12-02T08:30:01.301Z,10.24
2018-12-02T08:31:01.280Z,10.21
2018-12-02T08:32:01.259Z,10.25
2018-12-02T08:33:01.236Z,10.28
2018-12-02T08:34:01.215Z,10.28
2018-12-02T08:35:01.189Z,10.27
2018-12-02T08:36:01.188Z,10.33
2018-12-02T08:37:01.146Z,10.36
2018-12-02T08:38:01.122Z,10.36
2018-12-02T08:39:01.101Z,10.36
2018-12-02T08:40:01.082Z,10.28
2018-12-02T08:41:01.054Z,10.31
2018-12-02T08:42:01.032Z,10.31
2018-12-02T08:43:01.014Z,10.23
2018-12-02T08:44:00.988Z,10.33
2018-12-02T08:45:00.964Z,10.23
2018-12-02T08:46:00.950Z,10.38
2018-12-02T08:47:00.921Z,10.27
2018-12-02T08:48:00.898Z,10.27
2018-12-02T08:49:00.879Z,10.30
2018-12-02T08:50:00.854Z,10.30
2018-12-02T08:51:00.881Z,10.33
2018-12-02T08:52:00.809Z,10.36
2018-12-02T08:53:00.787Z,10.34
2018-12-02T08:54:00.763Z,10.31
2018-12-02T08:55:00.741Z,10.36
2018-12-02T08:56:00.718Z,10.31
2018-12-02T08:57:00.695Z,10.34
2018-12-02T08:58:00.676Z,10.31
2018-12-02T08:59:00.651Z,10.31
2018-12-02T09:00:00.628Z,10.39
2018-12-02T09:01:00.605Z,10.38
2018-12-02T09:02:00.584Z,10.31
2018-12-02T09:03:00.561Z,10.33
2018-12-02T09:04:00.538Z,10.36
2018-12-02T09:05:00.514Z,10.42
2018-12-02T09:06:00.493Z,10.36
2018-12-02T09:07:00.471Z,10.36
2018-12-02T09:08:00.456Z,10.43
2018-12-02T09:09:00.463Z,10.33
2018-12-02T09:10:00.405Z,10.38
2018-12-02T09:11:00.381Z,10.41
2018-12-02T09:12:00.381Z,10.36
2018-12-02T09:13:00.345Z,10.36
2018-12-02T09:14:00.315Z,10.43
2018-12-02T09:15:00.296Z,10.46
2018-12-02T09:16:00.270Z,10.39
2018-12-02T09:17:00.806Z,10.43
2018-12-02T09:18:00.227Z,10.46
2018-12-02T09:19:00.203Z,10.42
2018-12-02T09:20:00.181Z,10.49
2018-12-02T09:21:00.157Z,10.51
2018-12-02T09:22:00.138Z,10.49
2018-12-02T09:23:00.114Z,10.53
2018-12-02T09:24:00.094Z,10.58
2018-12-02T09:25:00.069Z,10.48
2018-12-02T09:26:00.048Z,10.55
2018-12-02T09:27:00.025Z,10.45
2018-12-02T09:28:00.002Z,10.55
2018-12-02T09:28:59.979Z,10.42
2018-12-02T09:29:59.956Z,10.59
2018-12-02T09:30:59.934Z,10.59
2018-12-02T09:31:59.912Z,10.61
2018-12-02T09:32:59.890Z,10.59
2018-12-02T09:33:59.867Z,10.59
2018-12-02T09:34:59.849Z,10.57
2018-12-02T09:35:59.823Z,10.58
2018-12-02T09:36:59.801Z,10.57
2018-12-02T09:37:59.782Z,10.64
2018-12-02T09:38:59.756Z,10.72
2018-12-02T09:39:59.733Z,10.69
2018-12-02T09:40:59.711Z,10.77
2018-12-02T09:41:59.689Z,10.75
2018-12-02T09:42:59.668Z,10.72
2018-12-02T09:43:59.646Z,10.79
2018-12-02T09:44:59.623Z,10.80
2018-12-02T09:46:00.311Z,10.68
2018-12-02T09:46:59.583Z,10.71
2018-12-02T09:47:59.558Z,10.76
2018-12-02T09:48:59.536Z,10.77
2018-12-02T09:49:59.511Z,10.83
2018-12-02T09:50:59.492Z,10.80
2018-12-02T09:51:59.468Z,10.92
2018-12-02T09:52:59.447Z,10.84
2018-12-02T09:53:59.423Z,10.92
2018-12-02T09:54:59.401Z,10.86
2018-12-02T09:55:59.380Z,10.86
2018-12-02T09:56:59.356Z,10.89
2018-12-02T09:57:59.349Z,10.86
2018-12-02T09:58:59.312Z,10.92
2018-12-02T09:59:59.299Z,10.95
2018-12-02T10:00:59.273Z,11.00
2018-12-02T10:01:59.276Z,11.07
2018-12-02T10:02:59.222Z,10.98
2018-12-02T10:03:59.203Z,11.04
2018-12-02T10:04:59.181Z,11.02
2018-12-02T10:05:59.338Z,11.08
2018-12-02T10:06:59.135Z,11.10
2018-12-02T10:07:59.116Z,11.10
2018-12-02T10:08:59.091Z,11.22
2018-12-02T10:09:59.081Z,11.10
2018-12-02T10:10:59.049Z,11.13
2018-12-02T10:11:59.029Z,11.19
2018-12-02T10:12:59.006Z,11.19
2018-12-02T10:13:58.981Z,11.23
2018-12-02T10:14:58.960Z,11.22
2018-12-02T10:15:59.141Z,11.26
2018-12-02T10:16:58.915Z,11.27
2018-12-02T10:17:58.897Z,11.22
2018-12-02T10:18:58.872Z,11.20
2018-12-02T10:19:58.851Z,11.30
2018-12-02T10:20:58.827Z,11.30
2018-12-02T10:21:58.806Z,11.30
2018-12-02T10:22:58.801Z,11.35
2018-12-02T10:23:58.763Z,11.35
2018-12-02T10:24:58.742Z,11.41
2018-12-02T10:25:58.719Z,11.34
2018-12-02T10:26:58.707Z,11.37
2018-12-02T10:27:58.676Z,11.40
2018-12-02T10:28:58.730Z,11.45
2018-12-02T10:29:58.632Z,11.37
2018-12-02T10:30:58.622Z,11.40
2018-12-02T10:31:58.589Z,11.41
2018-12-02T10:32:58.571Z,11.40
2018-12-02T10:33:58.545Z,11.51
2018-12-02T10:34:58.524Z,11.48
2018-12-02T10:35:58.508Z,11.53
2018-12-02T10:36:58.486Z,11.56
2018-12-02T10:37:58.539Z,11.63
2018-12-02T10:38:58.443Z,11.65
2018-12-02T10:39:58.416Z,11.56
2018-12-02T10:40:58.396Z,11.55
2018-12-02T10:41:58.372Z,11.59
2018-12-02T10:42:58.352Z,11.70
2018-12-02T10:43:58.330Z,11.65
2018-12-02T10:44:58.309Z,11.77
2018-12-02T10:45:58.286Z,11.73
2018-12-02T10:46:58.603Z,11.76
2018-12-02T10:47:58.243Z,11.71
2018-12-02T10:48:58.258Z,11.76
2018-12-02T10:49:58.200Z,11.76
2018-12-02T10:50:58.186Z,11.71
2018-12-02T10:51:58.163Z,11.74
2018-12-02T10:52:58.134Z,11.85
2018-12-02T10:53:58.115Z,11.83
2018-12-02T10:54:58.094Z,11.86
2018-12-02T10:55:58.072Z,11.83
2018-12-02T10:56:58.049Z,11.88
2018-12-02T10:57:58.029Z,11.95
2018-12-02T10:58:58.006Z,11.95
2018-12-02T10:59:57.984Z,11.95
2018-12-02T11:00:57.963Z,11.81
2018-12-02T11:01:57.943Z,11.93
2018-12-02T11:02:57.922Z,11.91
2018-12-02T11:03:57.900Z,11.88
2018-12-02T11:04:57.878Z,11.89
2018-12-02T11:05:57.864Z,11.99
2018-12-02T11:06:57.836Z,11.89
2018-12-02T11:07:57.814Z,11.97
2018-12-02T11:08:57.795Z,12.03
2018-12-02T11:09:57.772Z,12.00
2018-12-02T11:10:57.749Z,12.03
2018-12-02T11:11:57.730Z,12.00
2018-12-02T11:12:57.708Z,11.97
2018-12-02T11:13:57.691Z,12.00
2018-12-02T11:14:57.669Z,12.00
2018-12-02T11:15:57.643Z,12.02
2018-12-02T11:16:57.620Z,12.07
2018-12-02T11:17:57.599Z,12.00
2018-12-02T11:18:57.580Z,12.11
2018-12-02T11:19:57.557Z,12.10
2018-12-02T11:20:57.552Z,12.12
2018-12-02T11:21:57.515Z,12.08
2018-12-02T11:22:57.567Z,12.15
2018-12-02T11:23:57.612Z,12.12
2018-12-02T11:24:57.451Z,12.15
2018-12-02T11:25:57.454Z,12.14
2018-12-02T11:26:57.411Z,12.12
2018-12-02T11:27:57.415Z,12.14
2018-12-02T11:28:57.368Z,12.18
2018-12-02T11:29:57.344Z,12.14
2018-12-02T11:30:57.324Z,12.14
2018-12-02T11:31:57.314Z,12.17
2018-12-02T11:32:57.280Z,12.23
2018-12-02T11:33:57.258Z,12.20
2018-12-02T11:34:57.238Z,12.17
2018-12-02T11:35:57.223Z,12.15
2018-12-02T11:36:57.198Z,12.12
2018-12-02T11:37:57.174Z,12.23
2018-12-02T11:38:57.158Z,12.18
2018-12-02T11:39:57.133Z,12.26
2018-12-02T11:40:57.110Z,12.25
2018-12-02T11:41:57.090Z,12.26
2018-12-02T11:42:57.071Z,12.26
2018-12-02T11:43:57.049Z,12.20
2018-12-02T11:44:57.028Z,12.29
2018-12-02T11:45:57.014Z,12.28
2018-12-02T11:46:56.985Z,12.25
2018-12-02T11:47:56.975Z,12.21
2018-12-02T11:48:56.941Z,12.21
2018-12-02T11:49:56.921Z,12.23
2018-12-02T11:50:56.917Z,12.25
2018-12-02T11:51:56.882Z,12.39
2018-12-02T11:52:56.860Z,12.25
2018-12-02T11:53:56.836Z,12.32
2018-12-02T11:54:56.815Z,12.40
2018-12-02T11:55:56.794Z,12.39
2018-12-02T11:56:56.773Z,12.32
2018-12-02T11:57:56.754Z,12.39
2018-12-02T11:58:56.730Z,12.43
2018-12-02T11:59:56.714Z,12.43
2018-12-02T12:00:56.689Z,12.40
2018-12-02T12:01:56.676Z,12.43
2018-12-02T12:02:56.647Z,12.36
2018-12-02T12:03:56.627Z,12.36
2018-12-02T12:04:56.606Z,12.39
2018-12-02T12:05:56.587Z,12.39
2018-12-02T12:06:56.567Z,12.53
2018-12-02T12:07:56.543Z,12.43
2018-12-02T12:08:56.521Z,12.43
2018-12-02T12:09:56.500Z,12.44
2018-12-02T12:10:56.482Z,12.51
2018-12-02T12:11:56.459Z,12.40
2018-12-02T12:12:56.439Z,12.58
2018-12-02T12:13:56.416Z,12.54
2018-12-02T12:14:56.396Z,12.53
2018-12-02T12:15:56.378Z,12.51
2018-12-02T12:16:56.376Z,12.50
2018-12-02T12:17:56.560Z,12.58
2018-12-02T12:18:56.312Z,12.50
2018-12-02T12:19:56.292Z,12.62
2018-12-02T12:20:56.269Z,12.61
2018-12-02T12:21:56.251Z,12.54
2018-12-02T12:22:56.228Z,12.51
2018-12-02T12:23:56.208Z,12.51
2018-12-02T12:24:56.186Z,12.54
2018-12-02T12:25:56.169Z,12.54
2018-12-02T12:26:56.145Z,12.61
2018-12-02T12:27:56.126Z,12.61
2018-12-02T12:28:56.102Z,12.73
2018-12-02T12:29:56.085Z,12.63
2018-12-02T12:30:56.064Z,12.69
2018-12-02T12:31:56.049Z,12.70
2018-12-02T12:32:56.021Z,12.72
2018-12-02T12:33:55.999Z,12.68
2018-12-02T12:34:55.978Z,12.76
2018-12-02T12:35:55.959Z,12.78
2018-12-02T12:36:55.937Z,12.83
2018-12-02T12:37:55.917Z,12.84
2018-12-02T12:38:55.895Z,12.83
2018-12-02T12:39:55.878Z,12.88
2018-12-02T12:40:55.858Z,12.93
2018-12-02T12:41:55.833Z,12.91
2018-12-02T12:42:55.814Z,12.99
2018-12-02T12:43:55.797Z,12.99
2018-12-02T12:44:55.778Z,12.90
2018-12-02T12:45:55.757Z,13.01
2018-12-02T12:46:55.733Z,13.03
2018-12-02T12:47:55.710Z,13.03
2018-12-02T12:48:55.694Z,13.08
2018-12-02T12:49:55.669Z,13.05
2018-12-02T12:50:55.683Z,13.06
2018-12-02T12:51:55.630Z,13.19
2018-12-02T12:52:55.617Z,13.17
2018-12-02T12:53:55.587Z,13.24
2018-12-02T12:54:55.569Z,13.27
2018-12-02T12:55:55.547Z,13.27
2018-12-02T12:56:55.555Z,13.37
2018-12-02T12:57:55.528Z,13.40
2018-12-02T12:58:55.499Z,13.42